Terminal Aerodrome Forecast
Issued by NWS Upton, NY

Home | Current Version | Previous Version | Text Only | Print | Product List | Glossary On
Versions: 1 2 3 4 5 6 7 8 9 10 11 12 13 14 15 16 17 18 19 20 21 22 23 24 25 26 27 28 29
000
FTUS41 KOKX 282323
TAFLGA
TAF
KLGA 282323Z 2900/2924 18009KT P6SM SCT050
     FM290100 20006KT P6SM FEW050
     FM290300 24004KT P6SM SCT080
     FM291100 VRB03KT P6SM SCT080
     FM291500 VRB05KT P6SM FEW050 SCT250
     FM291800 18010KT P6SM SCT050 SCT250
     FM292000 18014KT P6SM SCT050 SCT250=

USA.gov is the U.S. government's official web portal to all federal, state and local government web resources and services.